Time;durP1;ratioP1;P1;durP2;ratioP2;P2;SDS_P1;SDS_P2;PMS_P1;PMS_P2;Temp;Humidity;BMP_temperature;BMP_pressure;BME280_temperature;BME280_humidity;BME280_pressure;Samples;Min_cycle;Max_cycle;Signal;HPM_P1;HPM_P2
2023/04/15 06:42:33;;;;;;;3.03;1.80;;;11.00;99.90;;;;;;4890855;23;20337;-75
2023/04/15 06:44:59;;;;;;;3.30;2.07;;;10.90;99.90;;;;;;4881158;29;20582;-74
2023/04/15 06:47:26;;;;;;;3.80;2.00;;;10.90;99.90;;;;;;4881491;29;20211;-74
2023/04/15 06:49:53;;;;;;;3.57;2.07;;;11.10;99.90;;;;;;4881359;29;20585;-75
2023/04/15 06:52:20;;;;;;;5.23;2.17;;;11.30;99.90;;;;;;4881425;29;20219;-73
2023/04/15 06:54:47;;;;;;;3.70;2.00;;;11.50;99.90;;;;;;4881520;29;20211;-71
2023/04/15 06:57:14;;;;;;;6.10;2.00;;;11.50;99.90;;;;;;4880299;29;20222;-72
2023/04/15 06:59:42;;;;;;;5.70;2.40;;;11.80;99.90;;;;;;4877875;29;20235;-73
2023/04/15 07:02:13;;;;;;;3.30;1.90;;;12.10;99.90;;;;;;4880186;29;20310;-72
2023/04/15 07:04:39;;;;;;;4.07;2.33;;;12.40;99.90;;;;;;4878253;29;20218;-73
2023/04/15 07:07:06;;;;;;;6.40;2.53;;;12.50;99.90;;;;;;4878080;29;20211;-75
2023/04/15 07:09:33;;;;;;;3.87;2.30;;;12.90;99.90;;;;;;4879936;29;20722;-76
2023/04/15 07:12:00;;;;;;;5.53;2.53;;;13.30;99.90;;;;;;4879527;29;20298;-72
2023/04/15 07:14:28;;;;;;;6.67;2.30;;;13.70;99.90;;;;;;4879658;29;20214;-73
2023/04/15 07:16:56;;;;;;;4.60;2.40;;;13.90;99.90;;;;;;4879522;29;20207;-73
2023/04/15 07:19:23;;;;;;;5.43;2.20;;;14.00;99.90;;;;;;4879583;29;20238;-72
2023/04/15 07:21:50;;;;;;;5.63;2.70;;;14.10;99.90;;;;;;4879846;29;20215;-73
2023/04/15 07:24:18;;;;;;;3.80;2.30;;;14.00;99.90;;;;;;4879590;29;20238;-71
2023/04/15 07:26:45;;;;;;;5.70;2.30;;;14.10;99.90;;;;;;4879380;29;20310;-73
2023/04/15 07:29:12;;;;;;;3.53;1.97;;;14.30;99.90;;;;;;4879187;29;20262;-73
2023/04/15 07:31:40;;;;;;;5.43;2.00;;;14.90;99.90;;;;;;4879410;29;20211;-71
2023/04/15 07:34:08;;;;;;;5.67;2.23;;;15.70;99.90;;;;;;4879398;29;20223;-72
2023/04/15 07:36:35;;;;;;;3.97;2.20;;;16.60;99.90;;;;;;4879134;29;20207;-70
2023/04/15 07:39:03;;;;;;;6.00;2.50;;;17.20;99.90;;;;;;4878937;29;20231;-71
2023/04/15 07:41:30;;;;;;;4.50;2.20;;;17.30;99.90;;;;;;4879118;29;20305;-71
2023/04/15 07:43:57;;;;;;;5.10;2.22;;;17.30;99.90;;;;;;4878681;29;20242;-72
2023/04/15 07:46:26;;;;;;;5.63;2.60;;;17.70;99.90;;;;;;4878792;29;20219;-73
2023/04/15 07:48:52;;;;;;;4.63;2.50;;;17.40;99.90;;;;;;4878034;29;20258;-72
2023/04/15 07:51:21;;;;;;;4.72;2.80;;;17.50;99.90;;;;;;4878995;29;20685;-72
2023/04/15 07:53:48;;;;;;;9.88;2.92;;;17.80;99.90;;;;;;4879370;29;20214;-71
2023/04/15 07:56:15;;;;;;;5.38;2.60;;;18.00;99.90;;;;;;4878647;29;20227;-73
2023/04/15 07:58:42;;;;;;;3.78;2.45;;;18.20;99.90;;;;;;4878493;29;20231;-73
2023/04/15 08:01:09;;;;;;;4.93;2.30;;;18.20;99.90;;;;;;4878911;29;20217;-72
2023/04/15 08:03:36;;;;;;;5.80;2.37;;;18.10;99.90;;;;;;4878825;29;20242;-73
2023/04/15 08:06:03;;;;;;;6.23;2.83;;;17.80;99.90;;;;;;4879111;29;20222;-73
2023/04/15 08:08:31;;;;;;;5.50;2.87;;;17.70;99.90;;;;;;4878988;29;20239;-74
2023/04/15 08:10:58;;;;;;;4.00;2.60;;;17.40;99.90;;;;;;4878884;29;20217;-72
2023/04/15 08:13:26;;;;;;;4.87;2.80;;;17.20;99.90;;;;;;4878130;29;20215;-72
2023/04/15 08:16:14;;;;;;;6.40;2.70;;;17.30;99.90;;;;;;4875036;29;20210;-71
2023/04/15 08:18:41;;;;;;;5.35;3.10;;;16.90;99.90;;;;;;4875357;29;20693;-71
2023/04/15 08:21:11;;;;;;;7.73;3.87;;;17.00;99.90;;;;;;4880089;29;20571;-71
2023/04/15 08:23:39;;;;;;;5.50;3.33;;;17.30;99.90;;;;;;4880499;29;20735;-72
2023/04/15 08:26:06;;;;;;;4.83;2.87;;;17.30;99.90;;;;;;4879666;29;20215;-75
2023/04/15 08:28:33;;;;;;;5.03;3.20;;;17.20;99.90;;;;;;4878594;29;20312;-73
2023/04/15 08:31:00;;;;;;;4.67;3.40;;;17.20;99.90;;;;;;4878511;29;20219;-73
2023/04/15 08:33:27;;;;;;;5.67;3.37;;;16.90;99.90;;;;;;4878818;29;20745;-74
2023/04/15 08:35:54;;;;;;;4.95;3.17;;;17.70;99.90;;;;;;4878857;29;20221;-71
2023/04/15 08:38:21;;;;;;;5.50;3.25;;;18.40;99.90;;;;;;4878635;29;20215;-73
2023/04/15 08:40:49;;;;;;;6.65;3.40;;;19.20;99.80;;;;;;4879189;29;20223;-70
2023/04/15 08:43:25;;;;;;;7.07;3.53;;;19.90;98.70;;;;;;4879704;29;20722;-71
2023/04/15 08:45:52;;;;;;;5.47;3.53;;;20.20;97.80;;;;;;4879215;29;20217;-73
2023/04/15 08:48:20;;;;;;;7.07;4.35;;;20.00;98.90;;;;;;4880073;29;20215;-75
2023/04/15 08:50:47;;;;;;;6.45;3.70;;;19.70;97.80;;;;;;4879472;29;20302;-73
2023/04/15 08:53:15;;;;;;;5.93;3.60;;;19.30;99.10;;;;;;4883554;29;20310;-72
2023/04/15 08:55:45;;;;;;;5.53;3.70;;;19.20;98.50;;;;;;4883744;29;20207;-73
2023/04/15 08:58:14;;;;;;;5.95;3.33;;;19.30;99.20;;;;;;4882631;29;20207;-73
2023/04/15 09:00:41;;;;;;;4.97;3.05;;;18.50;99.30;;;;;;4883100;29;20211;-73
2023/04/15 09:03:09;;;;;;;6.38;3.50;;;18.60;99.50;;;;;;4882727;29;20688;-72
2023/04/15 09:05:37;;;;;;;6.28;3.13;;;18.70;99.30;;;;;;4882849;29;20221;-73
2023/04/15 09:08:05;;;;;;;5.00;3.15;;;18.90;98.80;;;;;;4878506;29;20215;-75
2023/04/15 09:10:32;;;;;;;5.63;2.70;;;18.50;98.40;;;;;;4879227;29;20242;-74
2023/04/15 09:12:59;;;;;;;6.50;2.45;;;18.10;99.10;;;;;;4879956;29;20643;-75
2023/04/15 09:15:29;;;;;;;5.93;2.78;;;18.30;98.20;;;;;;4879192;29;20215;-78
2023/04/15 09:17:56;;;;;;;4.28;2.58;;;18.60;98.60;;;;;;4878705;29;20211;-74
2023/04/15 09:20:23;;;;;;;6.25;2.38;;;18.30;97.90;;;;;;4878739;29;20241;-74
2023/04/15 09:22:51;;;;;;;5.90;2.40;;;17.70;97.40;;;;;;4878002;29;20215;-74
2023/04/15 09:25:30;;;;;;;3.90;2.60;;;17.40;98.60;;;;;;4878362;29;20302;-78
2023/04/15 09:27:58;;;;;;;4.05;2.20;;;17.50;98.60;;;;;;4878232;29;20215;-73
2023/04/15 09:30:25;;;;;;;4.95;2.55;;;17.50;98.10;;;;;;4878568;29;20322;-73
2023/04/15 09:32:55;;;;;;;4.68;2.38;;;17.50;97.80;;;;;;4877915;29;20667;-73
2023/04/15 09:35:24;;;;;;;2.92;2.28;;;17.60;97.80;;;;;;4878097;29;20211;-73
2023/04/15 09:37:52;;;;;;;3.88;2.33;;;17.80;97.50;;;;;;4878014;29;20543;-73
2023/04/15 09:40:31;;;;;;;6.37;2.50;;;17.50;98.60;;;;;;4877348;29;20237;-71
2023/04/15 09:42:58;;;;;;;3.07;2.23;;;17.10;98.40;;;;;;4877058;29;20227;-72
2023/04/15 09:45:26;;;;;;;4.38;2.65;;;17.20;98.90;;;;;;4877242;29;20211;-73
2023/04/15 09:47:54;;;;;;;3.53;2.23;;;16.90;99.10;;;;;;4877099;29;20756;-73
2023/04/15 09:50:21;;;;;;;5.37;3.03;;;16.90;98.60;;;;;;4877056;29;20329;-72
2023/04/15 09:52:48;;;;;;;5.23;2.83;;;16.90;99.00;;;;;;4877579;29;20564;-72
2023/04/15 09:55:18;;;;;;;4.70;2.60;;;16.50;99.40;;;;;;4877008;29;20637;-73
2023/04/15 09:57:46;;;;;;;8.37;2.60;;;16.30;99.90;;;;;;4877393;29;20212;-73
2023/04/15 10:00:14;;;;;;;4.43;2.50;;;16.10;99.90;;;;;;4876984;29;20229;-71
2023/04/15 10:02:42;;;;;;;6.00;2.50;;;16.10;99.90;;;;;;4877090;29;20250;-75
2023/04/15 10:05:13;;;;;;;4.00;2.60;;;16.00;99.90;;;;;;4876878;29;20245;-73
2023/04/15 10:07:41;;;;;;;4.27;2.30;;;15.70;99.90;;;;;;4876412;29;20214;-73
2023/04/15 10:10:09;;;;;;;3.57;2.13;;;15.60;99.90;;;;;;4876434;29;20242;-72
2023/04/15 10:12:37;;;;;;;2.83;2.10;;;15.50;99.90;;;;;;4879394;29;20730;-73
2023/04/15 10:15:06;;;;;;;2.83;2.00;;;15.60;99.90;;;;;;4880911;29;20223;-74
2023/04/15 10:17:35;;;;;;;4.27;2.00;;;15.70;99.90;;;;;;4880230;29;20604;-73
2023/04/15 10:20:03;;;;;;;2.10;1.37;;;15.50;98.60;;;;;;4879898;29;20282;-72
2023/04/15 10:22:32;;;;;;;2.50;1.43;;;15.40;98.80;;;;;;4881616;29;20218;-75
2023/04/15 10:24:59;;;;;;;1.20;1.00;;;15.50;99.30;;;;;;4880930;29;20250;-75
2023/04/15 10:27:27;;;;;;;1.43;1.20;;;15.70;99.20;;;;;;4881199;29;20259;-71
2023/04/15 10:29:54;;;;;;;2.50;1.47;;;15.80;98.60;;;;;;4880985;29;20235;-71
2023/04/15 10:32:25;;;;;;;2.83;1.40;;;16.00;98.90;;;;;;4881196;29;20211;-73
2023/04/15 10:34:54;;;;;;;2.17;1.43;;;15.80;98.40;;;;;;4881028;29;20306;-73
2023/04/15 10:37:21;;;;;;;3.03;1.40;;;15.90;98.40;;;;;;4880364;29;20221;-73
2023/04/15 10:39:50;;;;;;;2.83;1.57;;;15.70;97.90;;;;;;4881183;29;20255;-73
2023/04/15 10:42:18;;;;;;;2.83;1.20;;;15.50;99.10;;;;;;4881108;29;20752;-73
2023/04/15 10:44:48;;;;;;;2.60;1.30;;;15.50;97.80;;;;;;4880579;29;20235;-72
2023/04/15 10:47:18;;;;;;;2.00;1.23;;;15.30;97.20;;;;;;4880234;29;20215;-72
2023/04/15 10:49:51;;;;;;;3.07;1.33;;;15.20;98.40;;;;;;4880745;29;20374;-73
2023/04/15 10:52:23;;;;;;;3.10;1.30;;;15.40;98.60;;;;;;4880884;29;20215;-72
2023/04/15 10:55:03;;;;;;;1.80;1.30;;;15.70;97.80;;;;;;4880896;29;20666;-72
2023/04/15 10:57:35;;;;;;;2.03;1.53;;;15.70;97.30;;;;;;4880784;29;20656;-72
2023/04/15 11:00:13;;;;;;;2.37;1.23;;;15.90;97.30;;;;;;4880745;29;20223;-71
2023/04/15 11:02:46;;;;;;;1.93;1.00;;;16.00;97.80;;;;;;4880622;29;20670;-72
2023/04/15 11:05:13;;;;;;;1.73;1.30;;;16.00;96.40;;;;;;4881062;29;20242;-72
2023/04/15 11:07:48;;;;;;;1.60;1.03;;;16.00;95.90;;;;;;4880759;29;20215;-72
2023/04/15 11:11:00;;;;;;;1.57;1.23;;;15.90;95.40;;;;;;4880492;29;20575;-72
2023/04/15 11:13:31;;;;;;;2.13;1.17;;;15.90;96.60;;;;;;4880436;29;20211;-72
2023/04/15 11:16:02;;;;;;;2.20;0.80;;;16.00;95.10;;;;;;4880484;29;20349;-72
2023/04/15 11:18:31;;;;;;;2.83;0.93;;;16.10;91.20;;;;;;4880284;29;20243;-72
2023/04/15 11:21:00;;;;;;;1.30;0.90;;;16.00;91.80;;;;;;4880160;29;20262;-72
2023/04/15 11:23:30;;;;;;;1.00;0.70;;;16.00;91.50;;;;;;4879348;29;20234;-72
2023/04/15 11:25:58;;;;;;;2.30;0.87;;;16.00;91.20;;;;;;4879970;29;20211;-72
2023/04/15 11:28:27;;;;;;;1.87;0.90;;;15.90;89.30;;;;;;4879989;29;20552;-72
2023/04/15 11:30:55;;;;;;;1.77;1.00;;;15.90;92.40;;;;;;4880099;29;20219;-73
2023/04/15 11:33:23;;;;;;;2.00;1.30;;;15.70;93.40;;;;;;4880140;29;20678;-73
2023/04/15 11:35:52;;;;;;;2.40;1.50;;;15.80;94.80;;;;;;4880154;29;20249;-72
2023/04/15 11:38:19;;;;;;;1.70;1.30;;;15.90;95.80;;;;;;4879608;29;20230;-75
2023/04/15 11:40:46;;;;;;;1.40;1.00;;;16.00;95.20;;;;;;4879693;29;20233;-76
2023/04/15 11:43:14;;;;;;;2.63;1.43;;;16.10;94.50;;;;;;4880050;29;20215;-74
2023/04/15 11:45:51;;;;;;;2.30;1.47;;;16.20;94.40;;;;;;4880108;29;20242;-75
2023/04/15 11:48:20;;;;;;;1.90;1.10;;;16.30;94.30;;;;;;4879812;29;20221;-74
2023/04/15 11:50:53;;;;;;;2.53;1.10;;;16.20;92.00;;;;;;4879838;29;20214;-73
2023/04/15 11:53:20;;;;;;;2.20;1.20;;;16.10;92.20;;;;;;4879999;29;20207;-73
2023/04/15 11:55:48;;;;;;;3.40;1.30;;;15.90;92.80;;;;;;4879843;29;20219;-73
2023/04/15 11:58:17;;;;;;;1.80;1.37;;;15.90;93.80;;;;;;4879847;29;20667;-75
2023/04/15 12:00:48;;;;;;;2.83;1.10;;;15.80;93.70;;;;;;4879925;29;20683;-71
2023/04/15 12:03:20;;;;;;;1.23;0.80;;;15.80;93.80;;;;;;4879834;29;20239;-72
2023/04/15 12:06:12;;;;;;;0.97;0.73;;;16.00;92.60;;;;;;4879763;29;20291;-76
2023/04/15 12:08:59;;;;;;;1.70;1.13;;;16.10;92.30;;;;;;4870526;29;20781;-75
2023/04/15 12:11:31;;;;;;;1.87;1.03;;;16.10;92.30;;;;;;4880338;29;20214;-74
2023/04/15 12:13:59;;;;;;;2.43;0.87;;;16.10;93.00;;;;;;4879398;29;20230;-75
2023/04/15 12:16:28;;;;;;;1.30;0.80;;;16.10;93.60;;;;;;4879743;29;20215;-77
2023/04/15 12:18:57;;;;;;;1.77;0.70;;;16.20;90.70;;;;;;4879938;29;20230;-77
2023/04/15 12:21:26;;;;;;;0.70;0.60;;;16.20;90.00;;;;;;4879591;29;20222;-76
2023/04/15 12:23:54;;;;;;;1.30;0.90;;;16.20;87.60;;;;;;4879306;29;20706;-76
2023/04/15 12:26:28;;;;;;;2.03;1.17;;;16.30;90.10;;;;;;4878880;29;20218;-75
2023/04/15 12:28:55;;;;;;;1.20;0.87;;;16.30;91.10;;;;;;4878855;29;20235;-76
2023/04/15 12:31:22;;;;;;;1.80;1.10;;;16.20;92.60;;;;;;4879387;29;20207;-76
2023/04/15 12:33:49;;;;;;;2.40;0.90;;;16.10;92.80;;;;;;4878809;29;20274;-77
2023/04/15 12:36:17;;;;;;;1.57;0.90;;;16.00;90.70;;;;;;4879425;29;20595;-76
2023/04/15 12:38:44;;;;;;;2.60;1.17;;;15.90;91.80;;;;;;4879349;29;20235;-74
2023/04/15 12:41:11;;;;;;;2.40;1.20;;;16.20;91.90;;;;;;4879174;29;20242;-76
2023/04/15 12:43:38;;;;;;;2.13;0.90;;;16.30;90.90;;;;;;4879665;29;20211;-76
2023/04/15 12:46:05;;;;;;;1.03;0.80;;;16.30;91.60;;;;;;4878933;29;20730;-75
2023/04/15 12:48:33;;;;;;;2.00;1.00;;;16.30;92.50;;;;;;4878753;29;20343;-76
2023/04/15 12:50:59;;;;;;;3.13;1.57;;;16.40;93.60;;;;;;4878591;29;20679;-73
2023/04/15 12:53:28;;;;;;;2.40;1.10;;;16.40;94.00;;;;;;4878643;29;20226;-75
2023/04/15 12:55:55;;;;;;;1.47;0.73;;;16.50;92.80;;;;;;4878900;29;20211;-73
2023/04/15 12:58:22;;;;;;;1.17;0.60;;;16.50;92.30;;;;;;4878795;29;20259;-73
2023/04/15 13:00:49;;;;;;;1.00;0.70;;;16.40;91.40;;;;;;4879379;29;20210;-74
2023/04/15 13:03:16;;;;;;;1.20;0.70;;;16.40;88.10;;;;;;4879215;29;20211;-74
2023/04/15 13:05:43;;;;;;;1.17;0.67;;;16.40;89.80;;;;;;4878749;29;20239;-76
2023/04/15 13:08:10;;;;;;;1.17;0.87;;;16.40;88.40;;;;;;4878896;29;20211;-76
2023/04/15 13:10:38;;;;;;;0.90;0.50;;;16.40;89.80;;;;;;4878939;29;20211;-74
2023/04/15 13:13:05;;;;;;;1.13;0.60;;;16.30;89.00;;;;;;4878952;29;20222;-74
2023/04/15 13:15:32;;;;;;;0.70;0.60;;;16.30;89.20;;;;;;4878877;29;20227;-74
2023/04/15 13:17:59;;;;;;;1.37;0.60;;;16.20;89.50;;;;;;4878928;29;20215;-75
2023/04/15 13:20:26;;;;;;;1.40;0.70;;;16.20;91.50;;;;;;4878846;29;20223;-75
2023/04/15 13:22:54;;;;;;;1.90;0.80;;;16.10;91.40;;;;;;4878995;29;20218;-75
2023/04/15 13:25:21;;;;;;;0.93;0.50;;;16.20;92.70;;;;;;4878609;29;20239;-74
2023/04/15 13:27:49;;;;;;;4.03;1.00;;;16.40;92.00;;;;;;4878573;29;20211;-77
2023/04/15 13:30:16;;;;;;;1.97;0.90;;;16.50;91.80;;;;;;4878661;29;20231;-75
2023/04/15 13:32:43;;;;;;;1.43;0.90;;;16.50;91.50;;;;;;4878978;29;20214;-77
2023/04/15 13:35:10;;;;;;;1.73;0.90;;;16.30;92.10;;;;;;4879180;29;20215;-75
2023/04/15 13:37:38;;;;;;;2.20;1.13;;;16.40;92.80;;;;;;4878636;29;20211;-75
2023/04/15 13:40:07;;;;;;;1.50;1.03;;;16.10;92.90;;;;;;4878818;29;20237;-75
2023/04/15 13:42:33;;;;;;;2.20;0.93;;;16.20;93.40;;;;;;4878639;29;20219;-74
2023/04/15 13:45:02;;;;;;;1.57;0.93;;;16.40;93.60;;;;;;4878696;29;20273;-75
2023/04/15 13:47:29;;;;;;;1.90;1.30;;;16.50;94.30;;;;;;4882103;29;20217;-79
2023/04/15 13:49:55;;;;;;;2.57;1.10;;;16.50;94.30;;;;;;4882988;29;20317;-79
2023/04/15 13:52:22;;;;;;;2.33;1.33;;;16.60;94.70;;;;;;4883568;29;20218;-79
2023/04/15 13:54:49;;;;;;;1.73;0.80;;;16.60;94.20;;;;;;4883587;29;20226;-76
2023/04/15 13:57:16;;;;;;;1.13;0.73;;;16.40;93.00;;;;;;4882878;29;20210;-78
2023/04/15 13:59:43;;;;;;;1.90;1.00;;;16.30;93.20;;;;;;4882389;29;20699;-78
2023/04/15 14:02:12;;;;;;;1.47;1.00;;;16.30;93.30;;;;;;4882371;29;20260;-77
2023/04/15 14:04:38;;;;;;;1.10;0.80;;;16.30;94.60;;;;;;4882537;29;20239;-79
2023/04/15 14:07:05;;;;;;;2.33;0.90;;;16.30;93.30;;;;;;4882194;29;20215;-78
2023/04/15 14:09:32;;;;;;;1.57;0.70;;;16.20;93.50;;;;;;4882271;29;20235;-78
2023/04/15 14:12:00;;;;;;;2.10;0.90;;;16.30;93.70;;;;;;4882077;29;20218;-76
2023/04/15 14:14:27;;;;;;;2.93;1.07;;;16.30;94.00;;;;;;4881582;29;20219;-78
2023/04/15 14:16:54;;;;;;;1.33;0.80;;;16.20;94.20;;;;;;4882079;29;20207;-77
2023/04/15 14:19:23;;;;;;;1.43;0.80;;;16.20;94.10;;;;;;4882020;29;20317;-76
2023/04/15 14:21:50;;;;;;;1.00;0.60;;;16.30;94.50;;;;;;4882089;29;20293;-79
2023/04/15 14:24:17;;;;;;;3.30;0.50;;;16.40;93.80;;;;;;4882596;29;20242;-78
2023/04/15 14:26:44;;;;;;;1.33;0.40;;;16.20;92.30;;;;;;4885546;29;20302;-78
2023/04/15 14:29:11;;;;;;;1.43;0.50;;;16.10;90.20;;;;;;4885005;29;20618;-77
2023/04/15 14:31:37;;;;;;;1.63;0.30;;;16.00;91.20;;;;;;4884775;29;20208;-76
2023/04/15 14:34:04;;;;;;;1.73;0.40;;;15.90;91.30;;;;;;4883540;29;20783;-77
2023/04/15 14:36:33;;;;;;;0.97;0.40;;;15.90;90.70;;;;;;4885325;29;20217;-76
2023/04/15 14:38:59;;;;;;;0.60;0.40;;;15.90;90.00;;;;;;4881544;29;20789;-79
2023/04/15 14:41:26;;;;;;;1.57;0.40;;;15.90;91.60;;;;;;4882009;29;20207;-78
2023/04/15 14:43:53;;;;;;;1.50;0.30;;;15.80;92.70;;;;;;4881358;29;20214;-80
2023/04/15 14:46:20;;;;;;;0.40;0.30;;;16.00;93.70;;;;;;4882229;29;20590;-77
2023/04/15 14:48:47;;;;;;;1.20;0.40;;;15.90;92.20;;;;;;4882122;29;20231;-77
2023/04/15 14:51:14;;;;;;;1.07;0.43;;;15.90;93.20;;;;;;4881617;29;20215;-77
2023/04/15 14:53:42;;;;;;;1.47;0.50;;;15.80;94.00;;;;;;4881907;29;20223;-79
2023/04/15 14:56:09;;;;;;;2.10;0.60;;;15.80;94.30;;;;;;4881296;29;20211;-75
2023/04/15 14:58:36;;;;;;;1.33;0.60;;;15.90;94.40;;;;;;4881307;29;20232;-76
2023/04/15 15:01:03;;;;;;;1.57;0.73;;;15.90;95.00;;;;;;4881437;29;20562;-78
2023/04/15 15:03:30;;;;;;;1.20;0.70;;;15.90;95.50;;;;;;4881910;29;20253;-77
2023/04/15 15:05:57;;;;;;;1.20;0.77;;;15.70;95.30;;;;;;4882160;29;20243;-77
2023/04/15 15:08:24;;;;;;;2.40;1.00;;;15.40;95.80;;;;;;4881371;29;20234;-79
2023/04/15 15:10:52;;;;;;;0.93;0.73;;;15.40;96.60;;;;;;4881943;29;20230;-80
2023/04/15 15:13:19;;;;;;;2.30;1.10;;;15.30;96.90;;;;;;4881298;29;20211;-79
2023/04/15 15:15:47;;;;;;;3.43;0.80;;;15.20;97.50;;;;;;4881542;29;20658;-78
2023/04/15 15:18:15;;;;;;;1.60;0.80;;;15.30;97.50;;;;;;4876506;29;20208;-74
2023/04/15 15:20:42;;;;;;;3.27;1.10;;;15.30;97.80;;;;;;4880452;29;20215;-74
2023/04/15 15:23:09;;;;;;;1.03;0.70;;;15.30;97.70;;;;;;4880608;29;20215;-74
